sensor_id;sensor_type;location;lat;lon;timestamp;temperature;humidity
26703;DHT22;14316;51.074;3.704;2023-03-23T00:00:07;12.70;99.90
26703;DHT22;14316;51.074;3.704;2023-03-23T00:02:34;12.70;99.90
26703;DHT22;14316;51.074;3.704;2023-03-23T00:05:06;12.70;99.90
26703;DHT22;14316;51.074;3.704;2023-03-23T00:07:34;12.70;99.90
26703;DHT22;14316;51.074;3.704;2023-03-23T00:10:00;12.60;99.90
26703;DHT22;14316;51.074;3.704;2023-03-23T00:12:30;12.60;99.90
26703;DHT22;14316;51.074;3.704;2023-03-23T00:15:03;12.60;99.90
26703;DHT22;14316;51.074;3.704;2023-03-23T00:17:31;12.60;99.90
26703;DHT22;14316;51.074;3.704;2023-03-23T00:19:59;12.60;99.90
26703;DHT22;14316;51.074;3.704;2023-03-23T00:22:27;12.60;99.90
26703;DHT22;14316;51.074;3.704;2023-03-23T00:24:54;12.60;99.90
26703;DHT22;14316;51.074;3.704;2023-03-23T00:27:22;12.60;99.90
26703;DHT22;14316;51.074;3.704;2023-03-23T00:29:50;12.60;99.90
26703;DHT22;14316;51.074;3.704;2023-03-23T00:32:20;12.50;99.90
26703;DHT22;14316;51.074;3.704;2023-03-23T00:34:53;12.60;99.90
26703;DHT22;14316;51.074;3.704;2023-03-23T00:37:20;12.50;99.90
26703;DHT22;14316;51.074;3.704;2023-03-23T00:39:47;12.50;99.90
26703;DHT22;14316;51.074;3.704;2023-03-23T00:42:14;12.50;99.90
26703;DHT22;14316;51.074;3.704;2023-03-23T00:44:42;12.50;99.90
26703;DHT22;14316;51.074;3.704;2023-03-23T00:47:10;12.50;99.90
26703;DHT22;14316;51.074;3.704;2023-03-23T00:49:37;12.50;99.90
26703;DHT22;14316;51.074;3.704;2023-03-23T00:52:05;12.50;99.90
26703;DHT22;14316;51.074;3.704;2023-03-23T00:54:32;12.50;99.90
26703;DHT22;14316;51.074;3.704;2023-03-23T00:56:59;12.50;99.90
26703;DHT22;14316;51.074;3.704;2023-03-23T00:59:25;12.50;99.90
26703;DHT22;14316;51.074;3.704;2023-03-23T01:01:51;12.50;99.90
26703;DHT22;14316;51.074;3.704;2023-03-23T01:04:17;12.50;99.90
26703;DHT22;14316;51.074;3.704;2023-03-23T01:06:44;12.50;99.90
26703;DHT22;14316;51.074;3.704;2023-03-23T01:09:16;12.50;99.90
26703;DHT22;14316;51.074;3.704;2023-03-23T01:11:45;12.50;99.90
26703;DHT22;14316;51.074;3.704;2023-03-23T01:14:14;12.50;99.90
26703;DHT22;14316;51.074;3.704;2023-03-23T01:16:41;12.40;99.90
26703;DHT22;14316;51.074;3.704;2023-03-23T01:19:07;12.50;99.90
26703;DHT22;14316;51.074;3.704;2023-03-23T01:21:32;12.50;99.90
26703;DHT22;14316;51.074;3.704;2023-03-23T01:23:58;12.50;99.90
26703;DHT22;14316;51.074;3.704;2023-03-23T01:26:26;12.50;99.90
26703;DHT22;14316;51.074;3.704;2023-03-23T01:28:53;12.50;99.90
26703;DHT22;14316;51.074;3.704;2023-03-23T01:31:22;12.50;99.90
26703;DHT22;14316;51.074;3.704;2023-03-23T01:33:48;12.50;99.90
26703;DHT22;14316;51.074;3.704;2023-03-23T01:36:19;12.50;99.90
26703;DHT22;14316;51.074;3.704;2023-03-23T01:38:48;12.50;99.90
26703;DHT22;14316;51.074;3.704;2023-03-23T01:41:15;12.40;99.90
26703;DHT22;14316;51.074;3.704;2023-03-23T01:44:05;12.50;99.90
26703;DHT22;14316;51.074;3.704;2023-03-23T01:46:33;12.40;99.90
26703;DHT22;14316;51.074;3.704;2023-03-23T01:49:24;12.50;99.90
26703;DHT22;14316;51.074;3.704;2023-03-23T01:51:56;12.50;99.90
26703;DHT22;14316;51.074;3.704;2023-03-23T01:54:23;12.50;99.90
26703;DHT22;14316;51.074;3.704;2023-03-23T01:57:01;12.50;99.90
26703;DHT22;14316;51.074;3.704;2023-03-23T01:59:29;12.50;99.90
26703;DHT22;14316;51.074;3.704;2023-03-23T02:01:57;12.50;99.90
26703;DHT22;14316;51.074;3.704;2023-03-23T02:04:24;12.60;99.90
26703;DHT22;14316;51.074;3.704;2023-03-23T02:06:54;12.60;99.90
26703;DHT22;14316;51.074;3.704;2023-03-23T02:09:22;12.60;99.90
26703;DHT22;14316;51.074;3.704;2023-03-23T02:11:48;12.60;99.90
26703;DHT22;14316;51.074;3.704;2023-03-23T02:14:19;12.60;99.90
26703;DHT22;14316;51.074;3.704;2023-03-23T02:22:42;12.60;99.90
26703;DHT22;14316;51.074;3.704;2023-03-23T02:26:01;12.60;99.90
26703;DHT22;14316;51.074;3.704;2023-03-23T02:31:42;12.60;99.90
26703;DHT22;14316;51.074;3.704;2023-03-23T02:34:16;12.60;99.90
26703;DHT22;14316;51.074;3.704;2023-03-23T02:36:52;12.60;99.90
26703;DHT22;14316;51.074;3.704;2023-03-23T02:39:31;12.60;99.90
26703;DHT22;14316;51.074;3.704;2023-03-23T02:42:08;12.60;99.90
26703;DHT22;14316;51.074;3.704;2023-03-23T02:44:37;12.60;99.90
26703;DHT22;14316;51.074;3.704;2023-03-23T02:47:09;12.50;99.90
26703;DHT22;14316;51.074;3.704;2023-03-23T02:49:38;12.50;99.90
26703;DHT22;14316;51.074;3.704;2023-03-23T02:52:12;12.50;99.90
26703;DHT22;14316;51.074;3.704;2023-03-23T02:54:44;12.60;99.90
26703;DHT22;14316;51.074;3.704;2023-03-23T02:57:11;12.50;99.90
26703;DHT22;14316;51.074;3.704;2023-03-23T02:59:39;12.50;99.90
26703;DHT22;14316;51.074;3.704;2023-03-23T03:02:12;12.50;99.90
26703;DHT22;14316;51.074;3.704;2023-03-23T03:04:40;12.50;99.90
26703;DHT22;14316;51.074;3.704;2023-03-23T03:07:20;12.60;99.90
26703;DHT22;14316;51.074;3.704;2023-03-23T03:09:57;12.50;99.90
26703;DHT22;14316;51.074;3.704;2023-03-23T03:17:43;12.10;99.90
26703;DHT22;14316;51.074;3.704;2023-03-23T03:20:12;12.10;99.90
26703;DHT22;14316;51.074;3.704;2023-03-23T03:22:41;12.20;99.90
26703;DHT22;14316;51.074;3.704;2023-03-23T03:25:10;12.20;99.90
26703;DHT22;14316;51.074;3.704;2023-03-23T03:27:39;12.20;99.90
26703;DHT22;14316;51.074;3.704;2023-03-23T03:30:09;12.10;99.90
26703;DHT22;14316;51.074;3.704;2023-03-23T03:32:43;11.90;99.90
26703;DHT22;14316;51.074;3.704;2023-03-23T03:35:12;11.70;99.90
26703;DHT22;14316;51.074;3.704;2023-03-23T03:37:39;11.60;99.90
26703;DHT22;14316;51.074;3.704;2023-03-23T03:40:12;11.60;99.90
26703;DHT22;14316;51.074;3.704;2023-03-23T03:42:40;11.60;99.90
26703;DHT22;14316;51.074;3.704;2023-03-23T03:45:08;11.70;99.90
26703;DHT22;14316;51.074;3.704;2023-03-23T03:47:34;11.70;99.90
26703;DHT22;14316;51.074;3.704;2023-03-23T03:50:01;11.80;99.90
26703;DHT22;14316;51.074;3.704;2023-03-23T03:52:27;11.80;99.90
26703;DHT22;14316;51.074;3.704;2023-03-23T03:54:54;11.90;99.90
26703;DHT22;14316;51.074;3.704;2023-03-23T03:57:21;11.90;99.90
26703;DHT22;14316;51.074;3.704;2023-03-23T03:59:47;11.90;99.90
26703;DHT22;14316;51.074;3.704;2023-03-23T04:02:13;12.00;99.90
26703;DHT22;14316;51.074;3.704;2023-03-23T04:04:42;12.00;99.90
26703;DHT22;14316;51.074;3.704;2023-03-23T04:07:09;12.10;99.90
26703;DHT22;14316;51.074;3.704;2023-03-23T04:09:40;12.10;99.90
26703;DHT22;14316;51.074;3.704;2023-03-23T04:12:06;12.10;99.90
26703;DHT22;14316;51.074;3.704;2023-03-23T04:14:33;12.20;99.90
26703;DHT22;14316;51.074;3.704;2023-03-23T04:16:59;12.20;99.90
26703;DHT22;14316;51.074;3.704;2023-03-23T04:19:25;12.20;99.90
26703;DHT22;14316;51.074;3.704;2023-03-23T04:21:53;12.30;99.90
26703;DHT22;14316;51.074;3.704;2023-03-23T04:24:20;12.30;99.90
26703;DHT22;14316;51.074;3.704;2023-03-23T04:26:48;12.30;99.90
26703;DHT22;14316;51.074;3.704;2023-03-23T04:29:14;12.30;99.90
26703;DHT22;14316;51.074;3.704;2023-03-23T04:31:41;12.30;99.90
26703;DHT22;14316;51.074;3.704;2023-03-23T04:34:11;12.30;99.90
26703;DHT22;14316;51.074;3.704;2023-03-23T04:36:40;12.20;99.90
26703;DHT22;14316;51.074;3.704;2023-03-23T04:39:07;12.20;99.90
26703;DHT22;14316;51.074;3.704;2023-03-23T04:41:39;12.10;99.90
26703;DHT22;14316;51.074;3.704;2023-03-23T04:44:06;12.00;99.90
26703;DHT22;14316;51.074;3.704;2023-03-23T04:46:32;11.90;99.90
26703;DHT22;14316;51.074;3.704;2023-03-23T04:48:59;11.90;99.90
26703;DHT22;14316;51.074;3.704;2023-03-23T04:51:28;11.80;99.90
26703;DHT22;14316;51.074;3.704;2023-03-23T04:53:56;11.90;99.90
26703;DHT22;14316;51.074;3.704;2023-03-23T04:56:22;11.90;99.90
26703;DHT22;14316;51.074;3.704;2023-03-23T04:58:48;12.00;99.90
26703;DHT22;14316;51.074;3.704;2023-03-23T05:01:14;12.00;99.90
26703;DHT22;14316;51.074;3.704;2023-03-23T05:03:44;12.00;99.90
26703;DHT22;14316;51.074;3.704;2023-03-23T05:06:10;11.90;99.90
26703;DHT22;14316;51.074;3.704;2023-03-23T05:08:36;11.90;99.90
26703;DHT22;14316;51.074;3.704;2023-03-23T05:11:06;11.90;99.90
26703;DHT22;14316;51.074;3.704;2023-03-23T05:13:32;11.90;99.90
26703;DHT22;14316;51.074;3.704;2023-03-23T05:16:03;11.90;99.90
26703;DHT22;14316;51.074;3.704;2023-03-23T05:18:30;11.90;99.90
26703;DHT22;14316;51.074;3.704;2023-03-23T05:21:00;11.80;99.90
26703;DHT22;14316;51.074;3.704;2023-03-23T05:23:26;11.70;99.90
26703;DHT22;14316;51.074;3.704;2023-03-23T05:25:56;11.60;99.90
26703;DHT22;14316;51.074;3.704;2023-03-23T05:28:26;11.50;99.90
26703;DHT22;14316;51.074;3.704;2023-03-23T05:30:52;11.40;99.90
26703;DHT22;14316;51.074;3.704;2023-03-23T05:33:19;11.30;99.90
26703;DHT22;14316;51.074;3.704;2023-03-23T05:35:46;11.30;99.90
26703;DHT22;14316;51.074;3.704;2023-03-23T05:38:13;11.00;99.90
26703;DHT22;14316;51.074;3.704;2023-03-23T05:40:40;10.80;99.90
26703;DHT22;14316;51.074;3.704;2023-03-23T05:43:10;10.70;99.90
26703;DHT22;14316;51.074;3.704;2023-03-23T05:45:36;10.50;99.90
26703;DHT22;14316;51.074;3.704;2023-03-23T05:48:02;10.40;99.90
26703;DHT22;14316;51.074;3.704;2023-03-23T05:50:28;10.40;99.90
26703;DHT22;14316;51.074;3.704;2023-03-23T05:52:55;10.30;99.90
26703;DHT22;14316;51.074;3.704;2023-03-23T05:55:21;10.30;99.90
26703;DHT22;14316;51.074;3.704;2023-03-23T05:57:46;10.20;99.90
26703;DHT22;14316;51.074;3.704;2023-03-23T06:00:13;10.10;99.90
26703;DHT22;14316;51.074;3.704;2023-03-23T06:02:40;10.10;99.90
26703;DHT22;14316;51.074;3.704;2023-03-23T06:05:10;10.00;99.90
26703;DHT22;14316;51.074;3.704;2023-03-23T06:07:36;9.90;99.90
26703;DHT22;14316;51.074;3.704;2023-03-23T06:10:07;9.80;99.90
26703;DHT22;14316;51.074;3.704;2023-03-23T06:12:35;9.80;99.90
26703;DHT22;14316;51.074;3.704;2023-03-23T06:15:01;9.80;99.90
26703;DHT22;14316;51.074;3.704;2023-03-23T06:17:28;9.70;99.90
26703;DHT22;14316;51.074;3.704;2023-03-23T06:19:54;9.70;99.90
26703;DHT22;14316;51.074;3.704;2023-03-23T06:22:20;9.60;99.90
26703;DHT22;14316;51.074;3.704;2023-03-23T06:24:46;9.60;99.90
26703;DHT22;14316;51.074;3.704;2023-03-23T06:27:12;9.60;99.90
26703;DHT22;14316;51.074;3.704;2023-03-23T06:29:39;9.60;99.90
26703;DHT22;14316;51.074;3.704;2023-03-23T06:32:05;9.60;99.90
26703;DHT22;14316;51.074;3.704;2023-03-23T06:34:31;9.60;99.90
26703;DHT22;14316;51.074;3.704;2023-03-23T06:37:00;9.60;99.90
26703;DHT22;14316;51.074;3.704;2023-03-23T06:39:27;9.50;99.90
26703;DHT22;14316;51.074;3.704;2023-03-23T06:41:54;9.50;99.90
26703;DHT22;14316;51.074;3.704;2023-03-23T06:44:20;9.50;99.90
26703;DHT22;14316;51.074;3.704;2023-03-23T06:46:45;9.50;99.90
26703;DHT22;14316;51.074;3.704;2023-03-23T06:49:13;9.50;99.90
26703;DHT22;14316;51.074;3.704;2023-03-23T06:51:39;9.50;99.90
26703;DHT22;14316;51.074;3.704;2023-03-23T06:54:05;9.50;99.90
26703;DHT22;14316;51.074;3.704;2023-03-23T06:56:31;9.60;99.90
26703;DHT22;14316;51.074;3.704;2023-03-23T06:58:57;9.50;99.90
26703;DHT22;14316;51.074;3.704;2023-03-23T07:01:23;9.50;99.90
26703;DHT22;14316;51.074;3.704;2023-03-23T07:03:49;9.50;99.90
26703;DHT22;14316;51.074;3.704;2023-03-23T07:06:16;9.60;99.90
26703;DHT22;14316;51.074;3.704;2023-03-23T07:08:42;9.50;99.90
26703;DHT22;14316;51.074;3.704;2023-03-23T07:11:08;9.50;99.90
26703;DHT22;14316;51.074;3.704;2023-03-23T07:13:35;9.50;99.90
26703;DHT22;14316;51.074;3.704;2023-03-23T07:16:05;9.60;99.90
26703;DHT22;14316;51.074;3.704;2023-03-23T07:18:32;9.60;99.90
26703;DHT22;14316;51.074;3.704;2023-03-23T07:20:58;9.60;99.90
26703;DHT22;14316;51.074;3.704;2023-03-23T07:23:24;9.60;99.90
26703;DHT22;14316;51.074;3.704;2023-03-23T07:25:50;9.60;99.90
26703;DHT22;14316;51.074;3.704;2023-03-23T07:28:16;9.60;99.90
26703;DHT22;14316;51.074;3.704;2023-03-23T07:30:42;9.70;99.90
26703;DHT22;14316;51.074;3.704;2023-03-23T07:33:09;9.80;99.90
26703;DHT22;14316;51.074;3.704;2023-03-23T07:35:35;9.80;99.90
26703;DHT22;14316;51.074;3.704;2023-03-23T07:38:03;9.90;99.90
26703;DHT22;14316;51.074;3.704;2023-03-23T07:40:30;9.80;99.90
26703;DHT22;14316;51.074;3.704;2023-03-23T07:43:00;9.80;99.90
26703;DHT22;14316;51.074;3.704;2023-03-23T07:45:27;9.90;99.90
26703;DHT22;14316;51.074;3.704;2023-03-23T07:47:53;9.90;99.90
26703;DHT22;14316;51.074;3.704;2023-03-23T07:50:20;9.90;99.90
26703;DHT22;14316;51.074;3.704;2023-03-23T07:52:58;10.00;99.90
26703;DHT22;14316;51.074;3.704;2023-03-23T07:55:25;10.00;99.90
26703;DHT22;14316;51.074;3.704;2023-03-23T07:57:53;10.10;99.90
26703;DHT22;14316;51.074;3.704;2023-03-23T08:00:20;10.20;99.90
26703;DHT22;14316;51.074;3.704;2023-03-23T08:02:51;10.20;99.90
26703;DHT22;14316;51.074;3.704;2023-03-23T08:05:17;10.20;99.90
26703;DHT22;14316;51.074;3.704;2023-03-23T08:07:45;10.20;99.90
26703;DHT22;14316;51.074;3.704;2023-03-23T08:10:12;10.20;99.90
26703;DHT22;14316;51.074;3.704;2023-03-23T08:12:42;10.10;99.90
26703;DHT22;14316;51.074;3.704;2023-03-23T08:15:10;10.20;99.90
26703;DHT22;14316;51.074;3.704;2023-03-23T08:17:42;10.40;99.90
26703;DHT22;14316;51.074;3.704;2023-03-23T08:20:12;10.50;99.90
26703;DHT22;14316;51.074;3.704;2023-03-23T08:22:40;10.70;99.90
26703;DHT22;14316;51.074;3.704;2023-03-23T08:25:08;10.80;99.90
26703;DHT22;14316;51.074;3.704;2023-03-23T08:27:34;11.00;99.90
26703;DHT22;14316;51.074;3.704;2023-03-23T08:30:00;11.20;99.90
26703;DHT22;14316;51.074;3.704;2023-03-23T08:32:27;11.30;99.90
26703;DHT22;14316;51.074;3.704;2023-03-23T08:34:53;11.40;99.90
26703;DHT22;14316;51.074;3.704;2023-03-23T08:37:19;11.50;99.90
26703;DHT22;14316;51.074;3.704;2023-03-23T08:39:45;11.60;99.90
26703;DHT22;14316;51.074;3.704;2023-03-23T08:42:11;11.90;99.90
26703;DHT22;14316;51.074;3.704;2023-03-23T08:44:37;12.10;99.90
26703;DHT22;14316;51.074;3.704;2023-03-23T08:47:04;12.30;99.90
26703;DHT22;14316;51.074;3.704;2023-03-23T08:49:31;12.40;99.90
26703;DHT22;14316;51.074;3.704;2023-03-23T08:52:00;12.20;99.90
26703;DHT22;14316;51.074;3.704;2023-03-23T08:54:26;12.10;99.90
26703;DHT22;14316;51.074;3.704;2023-03-23T08:56:53;12.10;99.90
26703;DHT22;14316;51.074;3.704;2023-03-23T08:59:20;12.00;99.90
26703;DHT22;14316;51.074;3.704;2023-03-23T09:01:46;12.10;99.90
26703;DHT22;14316;51.074;3.704;2023-03-23T09:04:13;12.20;99.90
26703;DHT22;14316;51.074;3.704;2023-03-23T09:06:40;12.20;99.90
26703;DHT22;14316;51.074;3.704;2023-03-23T09:09:07;12.20;99.90
26703;DHT22;14316;51.074;3.704;2023-03-23T09:11:35;12.30;99.90
26703;DHT22;14316;51.074;3.704;2023-03-23T09:14:02;12.40;99.90
26703;DHT22;14316;51.074;3.704;2023-03-23T09:16:28;12.60;99.90
26703;DHT22;14316;51.074;3.704;2023-03-23T09:18:55;12.70;99.90
26703;DHT22;14316;51.074;3.704;2023-03-23T09:21:23;12.90;99.90
26703;DHT22;14316;51.074;3.704;2023-03-23T09:23:50;13.00;99.90
26703;DHT22;14316;51.074;3.704;2023-03-23T09:26:17;13.00;99.90
26703;DHT22;14316;51.074;3.704;2023-03-23T09:28:43;13.40;99.90
26703;DHT22;14316;51.074;3.704;2023-03-23T09:31:11;13.60;99.90
26703;DHT22;14316;51.074;3.704;2023-03-23T09:33:38;13.60;99.90
26703;DHT22;14316;51.074;3.704;2023-03-23T09:36:05;13.50;99.90
26703;DHT22;14316;51.074;3.704;2023-03-23T09:38:33;13.60;99.90
26703;DHT22;14316;51.074;3.704;2023-03-23T09:44:07;13.50;99.90
26703;DHT22;14316;51.074;3.704;2023-03-23T09:49:51;13.50;99.90
26703;DHT22;14316;51.074;3.704;2023-03-23T09:52:18;13.70;99.90
26703;DHT22;14316;51.074;3.704;2023-03-23T09:54:49;13.80;99.90
26703;DHT22;14316;51.074;3.704;2023-03-23T09:57:29;13.80;99.90
26703;DHT22;14316;51.074;3.704;2023-03-23T10:00:22;13.50;99.90
26703;DHT22;14316;51.074;3.704;2023-03-23T10:03:05;13.40;99.90
26703;DHT22;14316;51.074;3.704;2023-03-23T10:05:39;13.20;99.90
26703;DHT22;14316;51.074;3.704;2023-03-23T10:08:14;13.30;99.90
26703;DHT22;14316;51.074;3.704;2023-03-23T10:13:50;13.40;99.90
26703;DHT22;14316;51.074;3.704;2023-03-23T10:16:22;13.50;99.90
26703;DHT22;14316;51.074;3.704;2023-03-23T10:19:12;13.60;99.90
26703;DHT22;14316;51.074;3.704;2023-03-23T10:21:46;13.70;99.90
26703;DHT22;14316;51.074;3.704;2023-03-23T10:24:15;13.70;99.90
26703;DHT22;14316;51.074;3.704;2023-03-23T10:26:57;13.70;99.90
26703;DHT22;14316;51.074;3.704;2023-03-23T10:29:30;13.70;99.90
26703;DHT22;14316;51.074;3.704;2023-03-23T10:31:59;13.70;99.90
26703;DHT22;14316;51.074;3.704;2023-03-23T10:34:39;13.70;99.90
26703;DHT22;14316;51.074;3.704;2023-03-23T10:39:58;13.40;99.90
26703;DHT22;14316;51.074;3.704;2023-03-23T10:42:34;13.60;99.90
26703;DHT22;14316;51.074;3.704;2023-03-23T10:45:25;13.70;99.90
26703;DHT22;14316;51.074;3.704;2023-03-23T10:50:29;13.70;99.90
26703;DHT22;14316;51.074;3.704;2023-03-23T10:52:58;13.50;99.90
26703;DHT22;14316;51.074;3.704;2023-03-23T10:55:35;12.80;99.90
26703;DHT22;14316;51.074;3.704;2023-03-23T10:58:12;12.20;99.90
26703;DHT22;14316;51.074;3.704;2023-03-23T11:00:47;11.90;99.90
26703;DHT22;14316;51.074;3.704;2023-03-23T11:05:43;11.70;99.90
26703;DHT22;14316;51.074;3.704;2023-03-23T11:08:12;11.70;99.90
26703;DHT22;14316;51.074;3.704;2023-03-23T11:10:50;12.00;99.90
26703;DHT22;14316;51.074;3.704;2023-03-23T11:13:21;12.10;99.90
26703;DHT22;14316;51.074;3.704;2023-03-23T11:15:48;12.20;99.90
26703;DHT22;14316;51.074;3.704;2023-03-23T11:18:44;12.80;99.90
26703;DHT22;14316;51.074;3.704;2023-03-23T11:21:12;13.30;99.90
26703;DHT22;14316;51.074;3.704;2023-03-23T11:23:46;14.10;99.90
26703;DHT22;14316;51.074;3.704;2023-03-23T11:26:28;14.50;99.90
26703;DHT22;14316;51.074;3.704;2023-03-23T11:34:24;13.50;99.90
26703;DHT22;14316;51.074;3.704;2023-03-23T11:39:30;13.30;99.90
26703;DHT22;14316;51.074;3.704;2023-03-23T11:41:59;12.70;99.90
26703;DHT22;14316;51.074;3.704;2023-03-23T11:44:41;12.20;99.90
26703;DHT22;14316;51.074;3.704;2023-03-23T11:55:03;13.50;99.90
26703;DHT22;14316;51.074;3.704;2023-03-23T11:57:32;14.20;99.90
26703;DHT22;14316;51.074;3.704;2023-03-23T11:59:58;14.50;99.90
26703;DHT22;14316;51.074;3.704;2023-03-23T12:06:09;14.40;99.90
26703;DHT22;14316;51.074;3.704;2023-03-23T12:08:57;15.00;99.90
26703;DHT22;14316;51.074;3.704;2023-03-23T12:31:03;17.30;99.90
26703;DHT22;14316;51.074;3.704;2023-03-23T12:33:56;17.30;99.90
26703;DHT22;14316;51.074;3.704;2023-03-23T12:36:50;17.50;99.90
26703;DHT22;14316;51.074;3.704;2023-03-23T12:45:20;17.40;99.90
26703;DHT22;14316;51.074;3.704;2023-03-23T12:47:59;18.30;99.90
26703;DHT22;14316;51.074;3.704;2023-03-23T12:50:46;18.60;99.90
26703;DHT22;14316;51.074;3.704;2023-03-23T12:53:23;18.70;99.90
26703;DHT22;14316;51.074;3.704;2023-03-23T12:58:45;18.10;99.90
26703;DHT22;14316;51.074;3.704;2023-03-23T13:01:25;17.30;99.90
26703;DHT22;14316;51.074;3.704;2023-03-23T13:06:37;18.00;99.90
26703;DHT22;14316;51.074;3.704;2023-03-23T13:09:15;18.20;99.90
26703;DHT22;14316;51.074;3.704;2023-03-23T13:11:43;17.90;99.90
26703;DHT22;14316;51.074;3.704;2023-03-23T13:17:56;17.80;99.90
26703;DHT22;14316;51.074;3.704;2023-03-23T13:23:15;19.50;99.90
26703;DHT22;14316;51.074;3.704;2023-03-23T13:25:54;19.30;99.90
26703;DHT22;14316;51.074;3.704;2023-03-23T13:28:30;18.40;99.90
26703;DHT22;14316;51.074;3.704;2023-03-23T13:31:00;18.00;99.90
26703;DHT22;14316;51.074;3.704;2023-03-23T13:33:32;17.90;99.90
26703;DHT22;14316;51.074;3.704;2023-03-23T13:36:08;17.10;99.90
26703;DHT22;14316;51.074;3.704;2023-03-23T13:38:36;17.50;99.90
26703;DHT22;14316;51.074;3.704;2023-03-23T13:41:11;18.60;99.90
26703;DHT22;14316;51.074;3.704;2023-03-23T13:43:39;19.20;99.90
26703;DHT22;14316;51.074;3.704;2023-03-23T13:49:03;20.40;99.90
26703;DHT22;14316;51.074;3.704;2023-03-23T13:56:48;20.20;99.90
26703;DHT22;14316;51.074;3.704;2023-03-23T13:59:31;20.00;99.90
26703;DHT22;14316;51.074;3.704;2023-03-23T14:02:26;20.80;99.90
26703;DHT22;14316;51.074;3.704;2023-03-23T14:04:52;21.80;99.90
26703;DHT22;14316;51.074;3.704;2023-03-23T14:07:20;21.40;99.90
26703;DHT22;14316;51.074;3.704;2023-03-23T14:09:46;22.10;99.90
26703;DHT22;14316;51.074;3.704;2023-03-23T14:12:27;22.10;99.90
26703;DHT22;14316;51.074;3.704;2023-03-23T14:15:00;22.60;99.90
26703;DHT22;14316;51.074;3.704;2023-03-23T14:17:39;21.30;99.90
26703;DHT22;14316;51.074;3.704;2023-03-23T14:20:07;20.70;99.90
26703;DHT22;14316;51.074;3.704;2023-03-23T14:22:37;19.90;99.90
26703;DHT22;14316;51.074;3.704;2023-03-23T14:25:13;19.40;99.90
26703;DHT22;14316;51.074;3.704;2023-03-23T14:27:40;19.70;99.90
26703;DHT22;14316;51.074;3.704;2023-03-23T14:30:14;20.60;99.90
26703;DHT22;14316;51.074;3.704;2023-03-23T14:32:41;20.90;99.90
26703;DHT22;14316;51.074;3.704;2023-03-23T14:35:33;19.30;99.90
26703;DHT22;14316;51.074;3.704;2023-03-23T14:38:01;18.40;99.90
26703;DHT22;14316;51.074;3.704;2023-03-23T14:40:29;19.80;99.90
26703;DHT22;14316;51.074;3.704;2023-03-23T14:42:56;20.30;99.90
26703;DHT22;14316;51.074;3.704;2023-03-23T14:45:23;21.50;99.90
26703;DHT22;14316;51.074;3.704;2023-03-23T14:47:54;23.60;99.90
26703;DHT22;14316;51.074;3.704;2023-03-23T14:50:35;24.20;99.90
26703;DHT22;14316;51.074;3.704;2023-03-23T14:53:18;24.70;99.90
26703;DHT22;14316;51.074;3.704;2023-03-23T14:55:47;24.60;99.90
26703;DHT22;14316;51.074;3.704;2023-03-23T14:58:17;24.10;99.90
26703;DHT22;14316;51.074;3.704;2023-03-23T15:00:54;23.90;99.90
26703;DHT22;14316;51.074;3.704;2023-03-23T15:03:22;22.50;99.90
26703;DHT22;14316;51.074;3.704;2023-03-23T15:05:57;23.00;99.90
26703;DHT22;14316;51.074;3.704;2023-03-23T15:08:27;22.90;99.90
26703;DHT22;14316;51.074;3.704;2023-03-23T15:13:32;21.20;99.90
26703;DHT22;14316;51.074;3.704;2023-03-23T15:16:11;20.60;99.90
26703;DHT22;14316;51.074;3.704;2023-03-23T15:18:39;19.50;99.90
26703;DHT22;14316;51.074;3.704;2023-03-23T15:21:12;18.80;99.90
26703;DHT22;14316;51.074;3.704;2023-03-23T15:23:44;17.80;99.90
26703;DHT22;14316;51.074;3.704;2023-03-23T15:26:23;17.50;99.90
26703;DHT22;14316;51.074;3.704;2023-03-23T15:28:49;16.90;99.90
26703;DHT22;14316;51.074;3.704;2023-03-23T15:31:15;16.40;99.90
26703;DHT22;14316;51.074;3.704;2023-03-23T15:33:41;16.10;99.90
26703;DHT22;14316;51.074;3.704;2023-03-23T15:36:14;16.00;99.90
26703;DHT22;14316;51.074;3.704;2023-03-23T15:38:46;16.20;99.90
26703;DHT22;14316;51.074;3.704;2023-03-23T15:41:24;17.10;99.90
26703;DHT22;14316;51.074;3.704;2023-03-23T15:43:53;18.00;99.90
26703;DHT22;14316;51.074;3.704;2023-03-23T15:46:23;19.20;99.90
26703;DHT22;14316;51.074;3.704;2023-03-23T15:51:17;18.60;99.90
26703;DHT22;14316;51.074;3.704;2023-03-23T15:53:43;18.00;99.90
26703;DHT22;14316;51.074;3.704;2023-03-23T15:56:12;17.30;99.90
26703;DHT22;14316;51.074;3.704;2023-03-23T15:58:38;16.40;99.90
26703;DHT22;14316;51.074;3.704;2023-03-23T16:01:12;16.00;99.90
26703;DHT22;14316;51.074;3.704;2023-03-23T16:06:30;14.70;99.90
26703;DHT22;14316;51.074;3.704;2023-03-23T16:08:57;14.30;99.90
26703;DHT22;14316;51.074;3.704;2023-03-23T16:11:26;14.10;99.90
26703;DHT22;14316;51.074;3.704;2023-03-23T16:13:52;14.10;99.90
26703;DHT22;14316;51.074;3.704;2023-03-23T16:16:22;14.10;99.90
26703;DHT22;14316;51.074;3.704;2023-03-23T16:18:49;14.10;99.90
26703;DHT22;14316;51.074;3.704;2023-03-23T16:21:15;14.30;99.90
26703;DHT22;14316;51.074;3.704;2023-03-23T16:23:41;14.40;99.90
26703;DHT22;14316;51.074;3.704;2023-03-23T16:26:13;14.50;99.90
26703;DHT22;14316;51.074;3.704;2023-03-23T16:28:39;14.60;99.90
26703;DHT22;14316;51.074;3.704;2023-03-23T16:31:06;14.70;99.90
26703;DHT22;14316;51.074;3.704;2023-03-23T16:33:32;14.80;99.90
26703;DHT22;14316;51.074;3.704;2023-03-23T16:35:58;14.80;99.90
26703;DHT22;14316;51.074;3.704;2023-03-23T16:38:24;14.80;99.90
26703;DHT22;14316;51.074;3.704;2023-03-23T16:40:50;14.80;99.90
26703;DHT22;14316;51.074;3.704;2023-03-23T16:43:16;14.90;99.90
26703;DHT22;14316;51.074;3.704;2023-03-23T16:45:44;14.80;99.90
26703;DHT22;14316;51.074;3.704;2023-03-23T16:48:12;14.80;99.90
26703;DHT22;14316;51.074;3.704;2023-03-23T16:50:39;14.80;99.90
26703;DHT22;14316;51.074;3.704;2023-03-23T16:53:06;14.80;99.90
26703;DHT22;14316;51.074;3.704;2023-03-23T16:55:33;14.90;99.90
26703;DHT22;14316;51.074;3.704;2023-03-23T16:58:00;14.80;99.90
26703;DHT22;14316;51.074;3.704;2023-03-23T17:00:26;14.80;99.90
26703;DHT22;14316;51.074;3.704;2023-03-23T17:02:54;14.80;99.90
26703;DHT22;14316;51.074;3.704;2023-03-23T17:05:26;14.70;99.90
26703;DHT22;14316;51.074;3.704;2023-03-23T17:07:53;14.70;99.90
26703;DHT22;14316;51.074;3.704;2023-03-23T17:10:20;14.70;99.90
26703;DHT22;14316;51.074;3.704;2023-03-23T17:12:47;14.70;99.90
26703;DHT22;14316;51.074;3.704;2023-03-23T17:15:14;14.70;99.90
26703;DHT22;14316;51.074;3.704;2023-03-23T17:17:40;14.70;99.90
26703;DHT22;14316;51.074;3.704;2023-03-23T17:20:07;14.80;99.90
26703;DHT22;14316;51.074;3.704;2023-03-23T17:22:35;14.70;99.90
26703;DHT22;14316;51.074;3.704;2023-03-23T17:25:01;14.70;99.90
26703;DHT22;14316;51.074;3.704;2023-03-23T17:27:28;14.80;99.90
26703;DHT22;14316;51.074;3.704;2023-03-23T17:29:54;14.80;99.90
26703;DHT22;14316;51.074;3.704;2023-03-23T17:32:20;14.90;99.90